Time;durP1;ratioP1;P1;durP2;ratioP2;P2;SDS_P1;SDS_P2;PMS_P1;PMS_P2;Temp;Humidity;BMP_temperature;BMP_pressure;BME280_temperature;BME280_humidity;BME280_pressure;Samples;Min_cycle;Max_cycle;Signal;HPM_P1;HPM_P2
2020/12/20 00:00:05;;;;;;;5.63;5.13;;;16.80;60.10;;;;;;5057107;28;20458;-52
2020/12/20 00:02:48;;;;;;;6.30;4.90;;;16.70;60.00;;;;;;5058482;28;20513;-52
2020/12/20 00:05:16;;;;;;;5.90;4.80;;;16.70;59.90;;;;;;5057751;28;20469;-47
2020/12/20 00:07:43;;;;;;;6.33;5.20;;;16.70;60.00;;;;;;5058030;28;20462;-47
2020/12/20 00:10:10;;;;;;;5.03;4.53;;;16.70;60.20;;;;;;5068391;28;20523;-47
2020/12/20 00:12:37;;;;;;;5.60;5.00;;;16.70;60.20;;;;;;5078214;28;20433;-50
2020/12/20 00:15:04;;;;;;;5.73;4.37;;;16.70;60.10;;;;;;5077620;28;20533;-50
2020/12/20 00:17:31;;;;;;;4.77;3.97;;;16.70;59.90;;;;;;5077692;28;20424;-49
2020/12/20 00:19:58;;;;;;;5.60;4.90;;;16.80;59.90;;;;;;5058445;28;20446;-53
2020/12/20 00:22:26;;;;;;;6.10;4.63;;;16.70;60.60;;;;;;5058003;28;20466;-50
2020/12/20 00:24:53;;;;;;;5.30;4.90;;;16.60;60.10;;;;;;5057668;28;20446;-50
2020/12/20 00:27:19;;;;;;;4.73;4.30;;;16.70;60.10;;;;;;5064662;28;20445;-50
2020/12/20 00:29:47;;;;;;;5.23;4.73;;;16.70;60.10;;;;;;5077358;28;20437;-51
2020/12/20 00:32:13;;;;;;;5.33;4.90;;;16.60;60.00;;;;;;5077484;28;20509;-51
2020/12/20 00:34:40;;;;;;;4.70;4.30;;;16.60;60.10;;;;;;5077400;28;20488;-51
2020/12/20 00:37:07;;;;;;;5.70;5.10;;;16.60;60.10;;;;;;5077009;28;20433;-51
2020/12/20 00:39:35;;;;;;;6.13;5.33;;;16.60;60.20;;;;;;5077432;28;20461;-51
2020/12/20 00:42:03;;;;;;;5.00;4.30;;;16.60;60.20;;;;;;5077231;28;20503;-52
2020/12/20 00:44:30;;;;;;;4.40;4.00;;;16.50;60.40;;;;;;5075154;28;20452;-48
2020/12/20 00:46:58;;;;;;;5.93;4.40;;;16.60;60.20;;;;;;5057650;28;20444;-47
2020/12/20 00:49:25;;;;;;;5.20;4.40;;;16.60;60.20;;;;;;5057001;28;20489;-48
2020/12/20 00:51:52;;;;;;;6.63;4.67;;;16.70;60.00;;;;;;5056812;28;20549;-50
2020/12/20 00:54:18;;;;;;;5.07;4.40;;;16.60;60.20;;;;;;5067161;28;20484;-50
2020/12/20 00:56:47;;;;;;;5.23;4.60;;;16.60;60.90;;;;;;5077199;28;20433;-50
2020/12/20 00:59:14;;;;;;;5.30;4.27;;;16.60;60.30;;;;;;5076811;28;20438;-51
2020/12/20 01:01:45;;;;;;;4.90;4.50;;;16.50;60.30;;;;;;5076381;28;20534;-53
2020/12/20 01:04:11;;;;;;;5.33;4.47;;;16.50;60.30;;;;;;5076965;28;20541;-47
2020/12/20 01:06:38;;;;;;;4.87;4.37;;;16.60;60.40;;;;;;5077137;28;20532;-53
2020/12/20 01:09:05;;;;;;;5.37;4.87;;;16.60;60.30;;;;;;5071951;28;20529;-49
2020/12/20 01:11:32;;;;;;;5.30;4.40;;;16.60;60.30;;;;;;5067395;28;20561;-54
2020/12/20 01:14:03;;;;;;;5.00;4.50;;;16.40;60.40;;;;;;5076256;28;20446;-51
2020/12/20 01:16:30;;;;;;;4.17;3.87;;;16.50;60.60;;;;;;5076524;28;20487;-51
2020/12/20 01:18:57;;;;;;;4.77;4.33;;;16.50;60.50;;;;;;5076937;28;20495;-50
2020/12/20 01:21:24;;;;;;;5.37;4.87;;;16.50;60.40;;;;;;5076028;28;20468;-51
2020/12/20 01:23:51;;;;;;;4.30;3.97;;;16.50;60.40;;;;;;5076564;28;20636;-52
2020/12/20 01:26:18;;;;;;;4.53;4.20;;;16.60;60.40;;;;;;5076200;28;20533;-49
2020/12/20 01:28:45;;;;;;;4.60;4.20;;;16.50;60.40;;;;;;5076156;28;20470;-51
2020/12/20 01:31:16;;;;;;;6.43;4.30;;;16.50;60.40;;;;;;5071159;28;20484;-53
2020/12/20 01:33:42;;;;;;;7.20;5.00;;;16.50;60.60;;;;;;5076461;28;20465;-50
2020/12/20 01:36:10;;;;;;;4.50;4.20;;;16.50;60.70;;;;;;5076497;28;20488;-52
2020/12/20 01:38:37;;;;;;;4.97;4.47;;;16.60;60.40;;;;;;5076123;28;20480;-52
2020/12/20 01:41:04;;;;;;;4.87;4.47;;;16.60;60.30;;;;;;5075706;28;20549;-50
2020/12/20 01:43:44;;;;;;;4.50;4.10;;;16.50;60.50;;;;;;5076111;28;20461;-52
2020/12/20 01:46:12;;;;;;;6.00;4.67;;;16.50;60.40;;;;;;5075981;28;20465;-52
2020/12/20 01:48:40;;;;;;;4.20;3.90;;;16.50;60.30;;;;;;5056286;28;20542;-49
2020/12/20 01:51:07;;;;;;;5.07;4.60;;;16.50;60.30;;;;;;5055413;28;20502;-53
2020/12/20 01:53:34;;;;;;;4.63;4.20;;;16.50;60.40;;;;;;5056072;28;20496;-51
2020/12/20 01:56:02;;;;;;;4.73;4.33;;;16.50;60.20;;;;;;5064029;28;20461;-52
2020/12/20 01:58:29;;;;;;;4.57;4.17;;;16.50;60.30;;;;;;5076137;28;20469;-53
2020/12/20 02:00:56;;;;;;;4.73;4.30;;;16.40;60.40;;;;;;5075601;28;20433;-52
2020/12/20 02:03:23;;;;;;;6.50;4.70;;;16.50;60.40;;;;;;5075775;28;20445;-50
2020/12/20 02:05:51;;;;;;;6.60;4.70;;;16.50;60.50;;;;;;5075769;28;20556;-50
2020/12/20 02:08:18;;;;;;;5.07;4.57;;;16.40;60.70;;;;;;5075722;28;20536;-49
2020/12/20 02:11:01;;;;;;;4.50;4.10;;;16.40;60.60;;;;;;5075289;28;20517;-50
2020/12/20 02:13:27;;;;;;;4.30;4.00;;;16.40;60.70;;;;;;5069647;28;20533;-47
2020/12/20 02:15:54;;;;;;;6.87;4.70;;;16.30;60.80;;;;;;5055691;28;20537;-52
2020/12/20 02:18:21;;;;;;;4.97;4.43;;;16.40;60.80;;;;;;5055851;28;20486;-51
2020/12/20 02:20:48;;;;;;;4.67;4.27;;;16.40;60.70;;;;;;5054460;28;20492;-50
2020/12/20 02:23:15;;;;;;;4.87;4.37;;;16.30;61.00;;;;;;5069609;28;20512;-53
2020/12/20 02:25:42;;;;;;;5.83;4.20;;;16.30;61.00;;;;;;5075514;28;20520;-50
2020/12/20 02:28:09;;;;;;;5.00;4.20;;;16.30;60.90;;;;;;5075715;28;20513;-53
2020/12/20 02:30:36;;;;;;;4.83;4.43;;;16.30;61.10;;;;;;5074003;28;20465;-53
2020/12/20 02:33:03;;;;;;;5.30;4.30;;;16.30;60.90;;;;;;5074809;28;20513;-50
2020/12/20 02:35:29;;;;;;;4.97;4.20;;;16.30;60.90;;;;;;5074658;28;20479;-49
2020/12/20 02:37:56;;;;;;;4.33;4.00;;;16.30;60.80;;;;;;5074911;28;20488;-49
2020/12/20 02:40:24;;;;;;;4.10;3.80;;;16.30;60.80;;;;;;5060793;28;20427;-49
2020/12/20 02:42:51;;;;;;;4.60;4.20;;;16.30;60.80;;;;;;5054868;28;20509;-53
2020/12/20 02:45:18;;;;;;;4.60;4.20;;;16.30;60.70;;;;;;5053254;28;20477;-53
2020/12/20 02:47:45;;;;;;;4.27;3.87;;;16.20;60.70;;;;;;5054861;28;20475;-48
2020/12/20 02:50:12;;;;;;;4.87;4.47;;;16.30;60.80;;;;;;5071496;28;20442;-51
2020/12/20 02:52:38;;;;;;;4.80;3.70;;;16.30;60.70;;;;;;5075111;28;20465;-53
2020/12/20 02:55:05;;;;;;;4.30;4.00;;;16.20;60.80;;;;;;5075025;28;20466;-51
2020/12/20 02:57:33;;;;;;;4.97;4.20;;;16.20;60.80;;;;;;5070022;28;20489;-54
2020/12/20 03:00:00;;;;;;;5.37;4.23;;;16.40;60.50;;;;;;5054343;28;20485;-50
2020/12/20 03:02:26;;;;;;;4.53;4.10;;;16.30;60.50;;;;;;5054969;28;20474;-46
2020/12/20 03:04:55;;;;;;;4.47;4.07;;;16.30;60.40;;;;;;5054868;28;20481;-49
2020/12/20 03:07:23;;;;;;;5.10;4.30;;;16.30;60.60;;;;;;5066987;28;20465;-48
2020/12/20 03:09:50;;;;;;;5.93;4.17;;;16.10;60.90;;;;;;5073767;28;20472;-46
2020/12/20 03:12:18;;;;;;;5.07;4.57;;;16.20;60.60;;;;;;5074273;28;20477;-51
2020/12/20 03:14:45;;;;;;;4.57;4.13;;;16.30;60.40;;;;;;5073999;28;20430;-48
2020/12/20 03:17:12;;;;;;;4.50;4.10;;;16.20;60.50;;;;;;5054585;28;20442;-49
2020/12/20 03:19:39;;;;;;;4.50;4.10;;;16.20;60.60;;;;;;5053847;28;20493;-46
2020/12/20 03:22:06;;;;;;;4.37;4.07;;;16.10;60.70;;;;;;5054610;28;20478;-47
2020/12/20 03:24:33;;;;;;;4.77;4.37;;;16.10;60.70;;;;;;5062858;28;20458;-51
2020/12/20 03:26:59;;;;;;;4.20;3.80;;;16.10;60.60;;;;;;5074603;28;20497;-49
2020/12/20 03:29:26;;;;;;;4.33;3.93;;;16.20;60.50;;;;;;5074765;28;20434;-47
2020/12/20 03:31:54;;;;;;;4.23;3.80;;;16.20;60.50;;;;;;5074173;28;20505;-47
2020/12/20 03:34:21;;;;;;;4.53;4.17;;;16.20;60.70;;;;;;5065295;28;20450;-51
2020/12/20 03:36:49;;;;;;;4.30;3.90;;;16.10;60.70;;;;;;5061007;28;20435;-50
2020/12/20 03:39:16;;;;;;;4.50;4.10;;;16.20;61.30;;;;;;5060861;28;20484;-51
2020/12/20 03:41:43;;;;;;;4.30;3.90;;;16.10;60.60;;;;;;5063949;28;20489;-48
2020/12/20 03:44:10;;;;;;;5.03;3.73;;;16.10;60.50;;;;;;5080881;28;20472;-53
2020/12/20 03:46:37;;;;;;;4.20;3.80;;;16.10;60.50;;;;;;5080791;28;20492;-47
2020/12/20 03:49:04;;;;;;;4.60;4.10;;;16.20;60.50;;;;;;5080643;28;20473;-50
2020/12/20 03:51:31;;;;;;;4.40;3.97;;;16.00;60.60;;;;;;5068282;28;20470;-48
2020/12/20 03:53:58;;;;;;;7.40;3.73;;;16.00;60.70;;;;;;5060923;28;20442;-47
2020/12/20 03:56:25;;;;;;;6.87;4.67;;;16.10;60.70;;;;;;5056259;28;20466;-48
2020/12/20 03:58:52;;;;;;;7.13;4.27;;;16.00;60.70;;;;;;5060837;28;20465;-48
2020/12/20 04:01:18;;;;;;;4.40;4.10;;;16.10;60.70;;;;;;5059676;28;20522;-48
2020/12/20 04:03:45;;;;;;;4.90;4.40;;;16.00;60.80;;;;;;5068084;28;20465;-51
2020/12/20 04:06:13;;;;;;;6.63;4.53;;;16.00;60.90;;;;;;5080713;28;20472;-46
2020/12/20 04:08:40;;;;;;;4.40;4.10;;;16.00;60.70;;;;;;5080382;28;20540;-47
2020/12/20 04:11:06;;;;;;;6.10;4.70;;;16.00;60.70;;;;;;5079970;28;20508;-50
2020/12/20 04:13:33;;;;;;;4.70;4.30;;;16.00;60.80;;;;;;5080593;28;20473;-51
2020/12/20 04:16:04;;;;;;;4.90;4.50;;;16.00;60.60;;;;;;5080491;28;20441;-48
2020/12/20 04:18:31;;;;;;;5.53;4.17;;;16.20;60.30;;;;;;5064752;28;20466;-49
2020/12/20 04:20:58;;;;;;;5.33;3.90;;;16.00;60.50;;;;;;5060148;28;20516;-47
2020/12/20 04:23:26;;;;;;;10.00;3.77;;;15.90;60.60;;;;;;5060939;28;20442;-49
2020/12/20 04:25:53;;;;;;;5.80;4.30;;;16.00;60.60;;;;;;5063178;28;20445;-48
2020/12/20 04:28:19;;;;;;;4.73;4.13;;;16.00;60.60;;;;;;5080590;28;20513;-50
2020/12/20 04:30:46;;;;;;;5.10;4.40;;;16.00;60.50;;;;;;5079402;28;20487;-46
2020/12/20 04:33:13;;;;;;;5.13;4.53;;;16.00;60.70;;;;;;5079811;28;20469;-52
2020/12/20 04:35:40;;;;;;;4.47;4.03;;;16.00;60.40;;;;;;5069261;28;20481;-46
2020/12/20 04:38:07;;;;;;;7.10;4.20;;;16.00;60.60;;;;;;5060177;28;20485;-46
2020/12/20 04:40:34;;;;;;;5.97;4.20;;;16.00;60.70;;;;;;5059603;28;20471;-47
2020/12/20 04:43:02;;;;;;;4.10;3.73;;;16.00;60.50;;;;;;5060178;28;20467;-47
2020/12/20 04:45:29;;;;;;;4.50;3.90;;;16.00;60.70;;;;;;5075335;28;20491;-51
2020/12/20 04:47:57;;;;;;;4.47;4.07;;;16.00;60.50;;;;;;5076799;28;20433;-51
2020/12/20 04:50:24;;;;;;;4.20;3.90;;;15.90;60.60;;;;;;5076955;28;20524;-51
2020/12/20 04:52:51;;;;;;;7.20;4.43;;;15.90;60.60;;;;;;5070500;28;20557;-51
2020/12/20 04:55:17;;;;;;;4.50;3.97;;;16.00;60.60;;;;;;5057518;28;20434;-51
2020/12/20 04:57:45;;;;;;;4.90;4.50;;;16.00;60.70;;;;;;5057593;28;20434;-48
2020/12/20 05:00:12;;;;;;;4.40;4.00;;;15.90;60.80;;;;;;5057079;28;20450;-50
2020/12/20 05:02:39;;;;;;;5.40;4.30;;;15.80;60.90;;;;;;5057743;28;20511;-52
2020/12/20 05:05:06;;;;;;;4.20;3.83;;;15.80;60.90;;;;;;5057169;28;20466;-52
2020/12/20 05:07:33;;;;;;;4.40;4.00;;;15.90;60.90;;;;;;5057373;28;20439;-49
2020/12/20 05:10:00;;;;;;;6.40;5.03;;;15.90;60.80;;;;;;5058336;28;20434;-51
2020/12/20 05:12:27;;;;;;;5.13;4.50;;;15.90;61.00;;;;;;5076961;28;20465;-53
2020/12/20 05:14:55;;;;;;;4.97;4.50;;;15.90;60.90;;;;;;5076783;28;20438;-50
2020/12/20 05:17:22;;;;;;;6.10;3.97;;;15.90;61.00;;;;;;5076878;28;20722;-53
2020/12/20 05:19:48;;;;;;;6.00;4.20;;;15.90;60.90;;;;;;5066037;28;20506;-52
2020/12/20 05:22:16;;;;;;;5.23;4.20;;;15.90;60.90;;;;;;5056689;28;20534;-51
2020/12/20 05:24:43;;;;;;;4.80;4.40;;;15.90;60.90;;;;;;5056795;28;20450;-48
2020/12/20 05:27:20;;;;;;;4.37;4.07;;;15.80;61.00;;;;;;5056822;28;20474;-49
2020/12/20 05:29:49;;;;;;;5.03;4.20;;;15.70;61.20;;;;;;5056293;28;20494;-52
2020/12/20 05:32:29;;;;;;;5.17;4.77;;;15.90;61.10;;;;;;5056521;28;20562;-49
2020/12/20 05:35:01;;;;;;;4.50;3.80;;;15.80;61.20;;;;;;5056299;28;20533;-53
2020/12/20 05:37:29;;;;;;;5.67;4.20;;;15.80;61.30;;;;;;5056317;28;20504;-51
2020/12/20 05:39:56;;;;;;;4.23;3.93;;;15.90;61.20;;;;;;5055842;28;20453;-49
2020/12/20 05:42:23;;;;;;;6.83;4.70;;;15.80;61.20;;;;;;5056107;28;20533;-53
2020/12/20 05:44:50;;;;;;;4.37;3.97;;;15.70;61.40;;;;;;5056461;28;20477;-48
2020/12/20 05:47:24;;;;;;;4.83;4.43;;;15.80;61.30;;;;;;5056339;28;20470;-50
2020/12/20 05:49:51;;;;;;;4.53;4.13;;;15.80;61.30;;;;;;5055413;28;20420;-47
2020/12/20 05:52:26;;;;;;;5.37;4.17;;;15.80;61.20;;;;;;5056119;28;20462;-49
2020/12/20 05:54:53;;;;;;;7.27;4.83;;;15.80;61.30;;;;;;5063052;28;20425;-53
2020/12/20 05:57:21;;;;;;;4.80;4.30;;;15.80;61.40;;;;;;5074415;28;20528;-47
2020/12/20 05:59:48;;;;;;;5.20;4.30;;;15.80;61.30;;;;;;5075234;28;20441;-49
2020/12/20 06:02:16;;;;;;;5.07;4.23;;;15.80;61.40;;;;;;5076098;28;20461;-52
2020/12/20 06:04:44;;;;;;;4.60;4.20;;;15.80;61.60;;;;;;5075010;28;20444;-48
2020/12/20 06:07:12;;;;;;;5.07;4.43;;;15.80;61.60;;;;;;5075118;28;20539;-47
2020/12/20 06:09:51;;;;;;;4.67;4.30;;;15.70;61.40;;;;;;5074931;28;20505;-46
2020/12/20 06:12:20;;;;;;;4.80;4.30;;;15.80;61.50;;;;;;5074699;28;20571;-48
2020/12/20 06:14:47;;;;;;;4.47;4.07;;;15.70;61.40;;;;;;5075179;28;20528;-46
2020/12/20 06:17:18;;;;;;;5.40;4.90;;;15.80;61.50;;;;;;5075377;28;20480;-47
2020/12/20 06:19:58;;;;;;;5.90;3.80;;;15.80;61.30;;;;;;5074541;28;20426;-50
2020/12/20 06:22:29;;;;;;;4.90;4.47;;;15.90;61.10;;;;;;5075025;28;20446;-47
2020/12/20 06:24:57;;;;;;;4.67;4.37;;;15.90;61.20;;;;;;5075140;28;20485;-48
2020/12/20 06:27:25;;;;;;;4.50;4.10;;;15.80;61.30;;;;;;5074940;28;20426;-47
2020/12/20 06:29:53;;;;;;;6.10;4.23;;;15.70;61.50;;;;;;5070688;28;20500;-47
2020/12/20 06:32:22;;;;;;;4.30;3.90;;;15.70;61.60;;;;;;5054848;28;20474;-48
2020/12/20 06:34:49;;;;;;;4.20;3.90;;;15.80;61.50;;;;;;5055186;28;20427;-46
2020/12/20 06:37:19;;;;;;;7.80;4.80;;;15.80;61.40;;;;;;5055071;28;20538;-49
2020/12/20 06:39:47;;;;;;;6.63;4.40;;;15.80;61.60;;;;;;5054846;28;20446;-52
2020/12/20 06:42:14;;;;;;;4.60;4.10;;;15.80;61.30;;;;;;5054613;28;20453;-50
2020/12/20 06:44:41;;;;;;;4.77;4.30;;;15.80;61.30;;;;;;5054359;28;20478;-50
2020/12/20 06:47:08;;;;;;;8.70;4.43;;;15.80;61.60;;;;;;5054681;28;20443;-49
2020/12/20 06:49:39;;;;;;;4.03;3.73;;;15.80;61.40;;;;;;5054365;28;20494;-50
2020/12/20 06:52:27;;;;;;;4.53;4.20;;;15.80;61.60;;;;;;5053998;28;20445;-45
2020/12/20 06:55:05;;;;;;;4.40;3.90;;;15.80;61.30;;;;;;5051305;28;20469;-49
2020/12/20 06:57:32;;;;;;;5.10;4.47;;;15.80;61.40;;;;;;5062812;28;20477;-46
2020/12/20 06:59:59;;;;;;;4.60;4.10;;;15.80;61.50;;;;;;5060778;28;20426;-51
2020/12/20 07:02:45;;;;;;;6.87;5.17;;;15.80;61.50;;;;;;5074778;28;20430;-51
2020/12/20 07:05:40;;;;;;;4.53;4.20;;;15.80;61.40;;;;;;5071487;28;20530;-51
2020/12/20 07:08:08;;;;;;;5.33;3.90;;;15.70;61.50;;;;;;5054453;28;20426;-52
2020/12/20 07:10:43;;;;;;;4.10;3.80;;;15.70;61.50;;;;;;5054125;28;20534;-48
2020/12/20 07:13:10;;;;;;;4.53;4.20;;;15.80;61.60;;;;;;5054130;28;20513;-51
2020/12/20 07:15:50;;;;;;;4.43;4.10;;;15.80;62.20;;;;;;5070420;28;20500;-50
2020/12/20 07:18:38;;;;;;;4.83;4.30;;;15.80;61.50;;;;;;5074674;28;20520;-52
2020/12/20 07:21:05;;;;;;;4.90;4.30;;;15.80;61.60;;;;;;5073753;28;20429;-51
2020/12/20 07:23:32;;;;;;;4.43;4.07;;;15.80;61.40;;;;;;5073673;28;20438;-51
2020/12/20 07:26:00;;;;;;;4.10;3.80;;;15.80;61.40;;;;;;5074178;28;20472;-49
2020/12/20 07:28:35;;;;;;;4.43;4.03;;;15.80;61.70;;;;;;5074089;28;20537;-49
2020/12/20 07:31:03;;;;;;;3.97;3.77;;;15.80;61.80;;;;;;5074183;28;20464;-49
2020/12/20 07:33:30;;;;;;;4.20;3.80;;;15.80;61.70;;;;;;5074308;28;20560;-49
2020/12/20 07:35:57;;;;;;;4.80;4.43;;;15.70;61.60;;;;;;5074402;28;20535;-49
2020/12/20 07:38:24;;;;;;;5.33;3.93;;;15.70;61.90;;;;;;5074436;28;20545;-48
2020/12/20 07:40:51;;;;;;;4.40;4.00;;;15.70;61.90;;;;;;5067977;28;20529;-48
2020/12/20 07:43:19;;;;;;;4.33;3.97;;;15.70;62.00;;;;;;5054238;28;20477;-48
2020/12/20 07:45:57;;;;;;;4.87;4.40;;;15.70;61.90;;;;;;5053958;28;20443;-52
2020/12/20 07:48:25;;;;;;;4.30;3.90;;;15.80;61.80;;;;;;5054480;28;20461;-46
2020/12/20 07:50:51;;;;;;;5.17;4.70;;;15.80;61.70;;;;;;5068947;28;20536;-49
2020/12/20 07:53:18;;;;;;;4.60;4.23;;;15.70;61.80;;;;;;5074104;28;20522;-50
2020/12/20 07:55:49;;;;;;;4.50;4.20;;;15.80;61.80;;;;;;5074347;28;20532;-50
2020/12/20 07:58:19;;;;;;;4.73;4.33;;;15.70;61.70;;;;;;5074087;28;20433;-49
2020/12/20 08:00:45;;;;;;;6.00;3.97;;;15.80;61.60;;;;;;5073812;28;20462;-51
2020/12/20 08:03:12;;;;;;;5.13;3.90;;;15.70;61.70;;;;;;5074209;28;20429;-53
2020/12/20 08:05:39;;;;;;;6.33;4.93;;;15.70;61.80;;;;;;5074501;28;20457;-50
2020/12/20 08:08:06;;;;;;;4.93;4.00;;;15.80;61.90;;;;;;5063403;28;20521;-49
2020/12/20 08:10:33;;;;;;;4.30;4.00;;;15.80;61.90;;;;;;5053622;28;20434;-47
2020/12/20 08:13:01;;;;;;;4.57;4.17;;;15.80;61.90;;;;;;5053988;28;20512;-49
2020/12/20 08:15:38;;;;;;;4.80;4.40;;;15.80;61.90;;;;;;5054066;28;20544;-52
2020/12/20 08:18:09;;;;;;;4.57;4.23;;;15.80;61.70;;;;;;5053545;28;20496;-51
2020/12/20 08:20:36;;;;;;;4.23;3.63;;;15.80;61.80;;;;;;5056097;28;20501;-48
2020/12/20 08:23:02;;;;;;;4.33;3.93;;;15.80;62.00;;;;;;5057747;28;20441;-51
2020/12/20 08:25:34;;;;;;;5.77;4.50;;;15.80;61.80;;;;;;5066635;28;20452;-50
2020/12/20 08:28:01;;;;;;;4.00;3.70;;;15.90;61.80;;;;;;5077889;28;20480;-50
2020/12/20 08:30:28;;;;;;;4.07;3.80;;;15.90;61.80;;;;;;5076689;28;20492;-51
2020/12/20 08:32:56;;;;;;;4.63;4.13;;;15.90;61.70;;;;;;5077495;28;20473;-50
2020/12/20 08:35:23;;;;;;;4.27;3.90;;;15.90;61.70;;;;;;5076895;28;20506;-52
2020/12/20 08:37:59;;;;;;;4.63;4.13;;;16.00;61.40;;;;;;5077757;28;20433;-51
2020/12/20 08:40:30;;;;;;;4.13;3.83;;;16.10;61.20;;;;;;5077117;28;20472;-48
2020/12/20 08:42:58;;;;;;;4.73;4.30;;;16.10;61.30;;;;;;5071470;28;20514;-47
2020/12/20 08:45:29;;;;;;;4.53;4.13;;;16.10;61.20;;;;;;5075183;28;20457;-52
2020/12/20 08:48:01;;;;;;;4.53;4.07;;;16.10;61.10;;;;;;5077435;28;20554;-52
2020/12/20 08:50:29;;;;;;;6.97;5.07;;;16.20;61.10;;;;;;5076220;28;20525;-48
2020/12/20 08:53:00;;;;;;;4.57;4.27;;;16.10;61.20;;;;;;5060606;28;20474;-49
2020/12/20 08:55:30;;;;;;;5.13;4.40;;;16.10;61.20;;;;;;5056284;28;20435;-47
2020/12/20 08:58:03;;;;;;;4.40;4.00;;;16.00;61.20;;;;;;5056940;28;20433;-52
2020/12/20 09:00:30;;;;;;;5.40;4.27;;;16.10;61.20;;;;;;5061321;28;20612;-50
2020/12/20 09:02:58;;;;;;;4.17;3.83;;;16.10;61.20;;;;;;5076826;28;20533;-51
2020/12/20 09:05:28;;;;;;;5.37;4.30;;;16.20;61.20;;;;;;5076766;28;20477;-50
2020/12/20 09:07:55;;;;;;;4.10;3.80;;;16.10;61.30;;;;;;5076545;28;20503;-49
2020/12/20 09:10:24;;;;;;;6.23;4.60;;;16.10;61.40;;;;;;5075701;28;20434;-51
2020/12/20 09:12:52;;;;;;;4.63;3.83;;;16.10;61.30;;;;;;5076551;28;20469;-49
2020/12/20 09:15:19;;;;;;;4.57;4.20;;;16.10;61.20;;;;;;5076730;28;20473;-50
2020/12/20 09:17:47;;;;;;;4.77;4.33;;;16.10;61.20;;;;;;5076889;28;20465;-52
2020/12/20 09:20:14;;;;;;;7.10;4.40;;;16.20;61.10;;;;;;5076016;28;20484;-50
2020/12/20 09:22:51;;;;;;;4.43;4.13;;;16.30;60.90;;;;;;5076639;28;20457;-49
2020/12/20 09:25:34;;;;;;;5.67;4.50;;;16.30;61.00;;;;;;5076678;28;20532;-52
2020/12/20 09:28:02;;;;;;;9.33;4.60;;;16.30;61.10;;;;;;5061602;28;20442;-55
2020/12/20 09:30:33;;;;;;;4.50;4.07;;;16.30;61.10;;;;;;5055597;28;20529;-49
2020/12/20 09:33:00;;;;;;;3.80;3.60;;;16.20;61.20;;;;;;5055845;28;20546;-52
2020/12/20 09:35:27;;;;;;;5.03;4.27;;;16.30;61.20;;;;;;5057475;28;20459;-49
2020/12/20 09:37:57;;;;;;;4.00;3.63;;;16.40;60.90;;;;;;5076573;28;20466;-50
2020/12/20 09:40:24;;;;;;;4.20;3.90;;;16.50;60.90;;;;;;5076213;28;20517;-51
2020/12/20 09:42:50;;;;;;;4.70;4.30;;;16.50;60.80;;;;;;5076271;28;20467;-52
2020/12/20 09:45:17;;;;;;;4.30;3.90;;;16.70;60.60;;;;;;5075911;28;20477;-51
2020/12/20 09:47:44;;;;;;;7.03;4.20;;;16.70;60.40;;;;;;5076313;28;20473;-51
2020/12/20 09:50:12;;;;;;;8.37;4.10;;;16.80;60.30;;;;;;5076018;28;20449;-50
2020/12/20 09:52:39;;;;;;;4.03;3.63;;;16.90;59.90;;;;;;5076276;28;20486;-48
2020/12/20 09:55:07;;;;;;;4.57;4.10;;;17.00;59.90;;;;;;5058587;28;20530;-48
2020/12/20 09:57:34;;;;;;;4.73;4.27;;;16.90;60.10;;;;;;5056145;28;20435;-52
2020/12/20 10:00:01;;;;;;;5.63;4.20;;;16.90;60.20;;;;;;5055579;28;20537;-51
2020/12/20 10:02:28;;;;;;;9.13;4.40;;;17.00;60.10;;;;;;5061240;28;20472;-49
2020/12/20 10:04:55;;;;;;;4.30;4.00;;;17.00;60.10;;;;;;5075874;28;20441;-47
2020/12/20 10:07:22;;;;;;;4.70;4.30;;;17.00;59.90;;;;;;5075630;28;20468;-52
2020/12/20 10:09:48;;;;;;;5.30;3.97;;;17.10;59.90;;;;;;5075189;28;20437;-47
2020/12/20 10:12:16;;;;;;;4.97;4.43;;;17.30;59.60;;;;;;5062517;28;20561;-52
2020/12/20 10:14:50;;;;;;;5.60;4.40;;;17.60;59.20;;;;;;5055717;28;20443;-47
2020/12/20 10:17:17;;;;;;;4.40;4.10;;;17.80;58.70;;;;;;5055779;28;20419;-51
2020/12/20 10:19:44;;;;;;;3.90;3.60;;;18.10;58.30;;;;;;5055443;28;20508;-51
2020/12/20 10:22:11;;;;;;;4.53;3.90;;;18.20;58.10;;;;;;5063598;28;20516;-52
2020/12/20 10:24:37;;;;;;;5.17;4.07;;;18.10;58.10;;;;;;5075317;28;20470;-52
2020/12/20 10:27:04;;;;;;;14.83;4.13;;;18.10;58.30;;;;;;5075202;28;20444;-51
2020/12/20 10:29:32;;;;;;;5.30;4.80;;;18.20;58.40;;;;;;5065352;28;20439;-51
2020/12/20 10:31:59;;;;;;;11.40;8.97;;;18.40;59.80;;;;;;5054732;28;20438;-51
2020/12/20 10:34:26;;;;;;;11.83;10.37;;;16.70;58.80;;;;;;5055169;28;20452;-50
2020/12/20 10:36:52;;;;;;;19.60;9.97;;;15.10;63.30;;;;;;5059551;28;20472;-52
2020/12/20 10:39:19;;;;;;;15.30;9.77;;;14.20;66.50;;;;;;5074253;28;20438;-51
2020/12/20 10:41:46;;;;;;;15.47;11.30;;;13.00;70.00;;;;;;5073059;28;20457;-50
2020/12/20 10:44:13;;;;;;;17.87;11.60;;;12.80;71.80;;;;;;5074211;28;20454;-51
2020/12/20 10:46:41;;;;;;;13.00;9.53;;;13.10;71.40;;;;;;5069821;28;20443;-54
2020/12/20 10:50:00;;;;;;;20.53;10.40;;;12.90;71.70;;;;;;5132272;27;20587;-48
2020/12/20 10:52:27;;;;;;;13.63;7.80;;;12.80;73.50;;;;;;5133144;28;20461;-55
2020/12/20 10:54:54;;;;;;;10.63;7.03;;;14.90;71.20;;;;;;5133070;28;20426;-55
2020/12/20 10:57:21;;;;;;;9.23;6.53;;;16.50;65.10;;;;;;5130671;28;20511;-52
2020/12/20 10:59:48;;;;;;;12.47;8.23;;;17.70;61.30;;;;;;5132152;28;20467;-57
2020/12/20 11:02:15;;;;;;;11.83;8.23;;;17.50;58.80;;;;;;5132852;28;20463;-50
2020/12/20 11:04:43;;;;;;;15.43;8.90;;;17.30;59.00;;;;;;5132950;27;20506;-52
2020/12/20 11:07:10;;;;;;;11.17;8.37;;;17.10;59.70;;;;;;5132704;28;20434;-54
2020/12/20 11:09:37;;;;;;;10.63;8.40;;;17.00;59.50;;;;;;5132287;28;20521;-53
2020/12/20 11:12:04;;;;;;;13.10;8.20;;;17.00;59.70;;;;;;5132406;28;20508;-52
2020/12/20 11:14:32;;;;;;;12.60;8.30;;;16.90;59.60;;;;;;5116301;28;20516;-53
2020/12/20 11:16:59;;;;;;;11.67;8.23;;;16.70;59.90;;;;;;5111864;28;20477;-54
2020/12/20 11:19:26;;;;;;;13.07;9.00;;;16.50;60.30;;;;;;5112079;28;20464;-55
2020/12/20 11:21:53;;;;;;;10.33;8.20;;;16.20;61.00;;;;;;5117620;27;20487;-52
2020/12/20 11:24:21;;;;;;;17.67;8.83;;;16.10;61.30;;;;;;5152923;27;20458;-54
2020/12/20 11:26:48;;;;;;;15.60;9.30;;;16.20;61.40;;;;;;5152745;27;20527;-50
2020/12/20 11:29:15;;;;;;;13.90;8.60;;;16.30;61.10;;;;;;5152855;27;20535;-51
2020/12/20 11:31:43;;;;;;;15.53;8.70;;;16.20;61.10;;;;;;5151610;27;20443;-53
2020/12/20 11:34:10;;;;;;;15.30;9.03;;;16.30;61.20;;;;;;5153043;27;20461;-51
2020/12/20 11:36:37;;;;;;;11.50;8.33;;;16.20;61.30;;;;;;5152920;27;20481;-55
2020/12/20 11:39:03;;;;;;;13.67;8.57;;;16.20;61.30;;;;;;5152595;27;20426;-54
2020/12/20 11:41:31;;;;;;;13.17;8.30;;;16.10;61.70;;;;;;5151293;27;20460;-55
2020/12/20 11:43:58;;;;;;;12.60;8.77;;;16.00;62.10;;;;;;5152921;27;20518;-51
2020/12/20 11:46:25;;;;;;;12.60;8.20;;;15.90;62.50;;;;;;5151594;27;20472;-61
2020/12/20 11:49:19;;;;;;;8.47;5.40;;;16.20;66.20;;;;;;5105893;27;20505;-62
2020/12/20 11:51:46;;;;;;;7.33;5.40;;;17.10;66.20;;;;;;5091260;28;20417;-65
2020/12/20 11:54:13;;;;;;;8.43;5.13;;;17.40;64.40;;;;;;5092266;28;20483;-64
2020/12/20 11:56:42;;;;;;;10.53;5.40;;;17.40;63.80;;;;;;5091550;28;20439;-62
2020/12/20 11:59:09;;;;;;;9.00;5.20;;;17.40;63.30;;;;;;5109913;28;20460;-48
2020/12/20 12:01:36;;;;;;;5.77;4.97;;;17.60;62.90;;;;;;5111400;28;20435;-62
2020/12/20 12:04:03;;;;;;;7.87;4.87;;;17.60;62.40;;;;;;5112111;28;20452;-64
2020/12/20 12:06:31;;;;;;;7.93;4.57;;;17.80;62.10;;;;;;5111690;28;20523;-62
2020/12/20 12:09:01;;;;;;;8.53;4.37;;;17.80;61.90;;;;;;5112020;28;20578;-61
2020/12/20 12:11:28;;;;;;;7.20;4.53;;;17.80;61.60;;;;;;5111124;28;20476;-65
2020/12/20 12:13:55;;;;;;;7.43;4.50;;;17.90;61.50;;;;;;5111642;28;20519;-63
2020/12/20 12:16:21;;;;;;;11.23;4.30;;;17.90;61.30;;;;;;5111247;28;20515;-63
2020/12/20 12:18:50;;;;;;;6.57;4.00;;;17.80;61.30;;;;;;5111948;28;20471;-64
2020/12/20 12:21:17;;;;;;;5.30;4.20;;;17.90;61.40;;;;;;5111349;28;20432;-69
2020/12/20 12:23:48;;;;;;;5.83;4.03;;;17.90;61.30;;;;;;5105703;28;20523;-62
2020/12/20 12:26:32;;;;;;;7.63;4.03;;;17.90;61.10;;;;;;5108259;28;20435;-64
2020/12/20 12:28:58;;;;;;;4.50;3.70;;;17.80;61.30;;;;;;5111827;28;20490;-61
2020/12/20 12:31:25;;;;;;;9.63;4.43;;;17.70;61.40;;;;;;5111327;28;20577;-62
2020/12/20 12:33:52;;;;;;;6.23;3.60;;;17.70;61.40;;;;;;5111548;28;20461;-68
2020/12/20 12:36:19;;;;;;;6.93;4.30;;;17.70;61.40;;;;;;5111733;28;20444;-63
2020/12/20 12:38:57;;;;;;;6.70;4.17;;;17.80;61.40;;;;;;5111926;28;20527;-64
2020/12/20 12:41:27;;;;;;;8.03;3.70;;;17.70;61.40;;;;;;5110442;28;20416;-66
2020/12/20 12:43:54;;;;;;;6.60;4.10;;;17.70;61.40;;;;;;5111579;28;20489;-66
2020/12/20 12:46:21;;;;;;;6.20;3.97;;;17.70;61.30;;;;;;5111626;28;20470;-65
2020/12/20 12:48:48;;;;;;;8.53;4.43;;;17.70;61.40;;;;;;5110954;28;20555;-60
2020/12/20 12:51:20;;;;;;;7.40;4.07;;;17.60;61.40;;;;;;5110606;28;20523;-54